ST2 weather

Montreal / Marina Venise
Quebec, Canada

Public forecast

Using degrees Celsius for public forecast. Weather courtesy of forecast.io.

Closest aviation weather report (METAR) to Montreal / Marina Venise

Closest report is Montreal / Pierre Elliott Trudeau International Airport, 9.9 nm (18.2 km) S. Retrieved 2020/01/26 02:40 UTC (0 seconds ago):

CYUL 260240Z 04013G19KT 3SM -SN OVC008 01/M00 A2982 RMK SF8 SLP100

Closest aviation forecast (TAF) to Montreal / Marina Venise

Closest forecast is Montreal / Pierre Elliott Trudeau International Airport, 9.9 nm (18.2 km) S. Retrieved 2020-01-26 03:51 UTC (0 seconds ago):

TAF CYUL 260245Z 2603/2624 05012G22KT 6SM -SN OVC008 TEMPO 2603/2609 11/2SM -SNRA BR OVC005 PROB30 2605/2609 1SM -SNRA BR OVC003 FM260900 03008KT 1SM -SN BR OVC003 BECMG 2610/2612 25005KT FM261400 24010KT 2SM -SNRA BR OVC006 FM261700 24012KT 4SM -SNRA BR OVC010 FM262200 24012KT 2SM -SHSN OVC010 RMK NXT FCST BY 260600Z